sensor_id;sensor_type;location;lat;lon;timestamp;P1;durP1;ratioP1;P2;durP2;ratioP2
15706;SDS011;7953;54.302;10.128;2022-08-19T00:00:49;25.00;;;16.27;;
15706;SDS011;7953;54.302;10.128;2022-08-19T00:03:16;23.53;;;15.70;;
15706;SDS011;7953;54.302;10.128;2022-08-19T00:05:44;18.57;;;14.47;;
15706;SDS011;7953;54.302;10.128;2022-08-19T00:08:11;21.23;;;15.53;;
15706;SDS011;7953;54.302;10.128;2022-08-19T00:10:38;22.90;;;15.33;;
15706;SDS011;7953;54.302;10.128;2022-08-19T00:13:05;20.17;;;15.70;;
15706;SDS011;7953;54.302;10.128;2022-08-19T00:15:32;24.23;;;16.50;;
15706;SDS011;7953;54.302;10.128;2022-08-19T00:17:59;25.03;;;16.43;;
15706;SDS011;7953;54.302;10.128;2022-08-19T00:20:26;22.13;;;16.33;;
15706;SDS011;7953;54.302;10.128;2022-08-19T00:22:55;20.37;;;15.93;;
15706;SDS011;7953;54.302;10.128;2022-08-19T00:25:22;23.07;;;16.40;;
15706;SDS011;7953;54.302;10.128;2022-08-19T00:27:49;23.10;;;15.87;;
15706;SDS011;7953;54.302;10.128;2022-08-19T00:30:16;17.60;;;14.10;;
15706;SDS011;7953;54.302;10.128;2022-08-19T00:32:43;17.73;;;14.40;;
15706;SDS011;7953;54.302;10.128;2022-08-19T00:35:10;19.80;;;14.93;;
15706;SDS011;7953;54.302;10.128;2022-08-19T00:37:37;18.13;;;14.47;;
15706;SDS011;7953;54.302;10.128;2022-08-19T00:40:10;19.43;;;14.87;;
15706;SDS011;7953;54.302;10.128;2022-08-19T00:42:38;24.23;;;16.23;;
15706;SDS011;7953;54.302;10.128;2022-08-19T00:45:08;21.40;;;16.07;;
15706;SDS011;7953;54.302;10.128;2022-08-19T00:47:37;23.97;;;15.90;;
15706;SDS011;7953;54.302;10.128;2022-08-19T00:50:05;22.43;;;16.93;;
15706;SDS011;7953;54.302;10.128;2022-08-19T00:52:34;22.97;;;15.73;;
15706;SDS011;7953;54.302;10.128;2022-08-19T00:55:07;24.60;;;16.80;;
15706;SDS011;7953;54.302;10.128;2022-08-19T00:57:40;21.20;;;16.77;;
15706;SDS011;7953;54.302;10.128;2022-08-19T01:00:11;24.33;;;15.87;;
15706;SDS011;7953;54.302;10.128;2022-08-19T01:02:41;24.37;;;16.23;;
15706;SDS011;7953;54.302;10.128;2022-08-19T01:05:10;21.00;;;15.90;;
15706;SDS011;7953;54.302;10.128;2022-08-19T01:07:40;26.30;;;17.87;;
15706;SDS011;7953;54.302;10.128;2022-08-19T01:10:10;25.63;;;16.53;;
15706;SDS011;7953;54.302;10.128;2022-08-19T01:12:40;19.67;;;16.37;;
15706;SDS011;7953;54.302;10.128;2022-08-19T01:15:08;20.53;;;16.73;;
15706;SDS011;7953;54.302;10.128;2022-08-19T01:17:38;23.60;;;17.93;;
15706;SDS011;7953;54.302;10.128;2022-08-19T01:20:08;24.27;;;17.87;;
15706;SDS011;7953;54.302;10.128;2022-08-19T01:22:39;25.17;;;16.97;;
15706;SDS011;7953;54.302;10.128;2022-08-19T01:25:12;24.07;;;18.47;;
15706;SDS011;7953;54.302;10.128;2022-08-19T01:27:39;28.50;;;19.83;;
15706;SDS011;7953;54.302;10.128;2022-08-19T01:30:09;28.53;;;19.70;;
15706;SDS011;7953;54.302;10.128;2022-08-19T01:32:38;24.20;;;19.30;;
15706;SDS011;7953;54.302;10.128;2022-08-19T01:35:05;25.83;;;19.00;;
15706;SDS011;7953;54.302;10.128;2022-08-19T01:37:42;20.43;;;15.43;;
15706;SDS011;7953;54.302;10.128;2022-08-19T01:40:13;31.73;;;20.60;;
15706;SDS011;7953;54.302;10.128;2022-08-19T01:42:40;31.43;;;20.00;;
15706;SDS011;7953;54.302;10.128;2022-08-19T01:45:07;31.03;;;21.53;;
15706;SDS011;7953;54.302;10.128;2022-08-19T01:47:35;33.47;;;18.80;;
15706;SDS011;7953;54.302;10.128;2022-08-19T01:50:03;31.43;;;20.57;;
15706;SDS011;7953;54.302;10.128;2022-08-19T01:52:31;34.23;;;20.27;;
15706;SDS011;7953;54.302;10.128;2022-08-19T01:55:03;31.50;;;19.57;;
15706;SDS011;7953;54.302;10.128;2022-08-19T01:57:31;29.73;;;19.73;;
15706;SDS011;7953;54.302;10.128;2022-08-19T01:59:58;33.70;;;19.50;;
15706;SDS011;7953;54.302;10.128;2022-08-19T02:02:27;28.90;;;18.60;;
15706;SDS011;7953;54.302;10.128;2022-08-19T02:04:54;36.20;;;20.80;;
15706;SDS011;7953;54.302;10.128;2022-08-19T02:07:21;33.50;;;19.77;;
15706;SDS011;7953;54.302;10.128;2022-08-19T02:09:49;29.67;;;19.57;;
15706;SDS011;7953;54.302;10.128;2022-08-19T02:12:17;25.23;;;17.30;;
15706;SDS011;7953;54.302;10.128;2022-08-19T02:14:44;28.97;;;18.83;;
15706;SDS011;7953;54.302;10.128;2022-08-19T02:17:11;30.23;;;18.77;;
15706;SDS011;7953;54.302;10.128;2022-08-19T02:19:38;30.40;;;19.37;;
15706;SDS011;7953;54.302;10.128;2022-08-19T02:22:05;31.40;;;19.73;;
15706;SDS011;7953;54.302;10.128;2022-08-19T02:24:32;34.37;;;19.83;;
15706;SDS011;7953;54.302;10.128;2022-08-19T02:26:59;34.17;;;19.43;;
15706;SDS011;7953;54.302;10.128;2022-08-19T02:29:27;28.73;;;18.37;;
15706;SDS011;7953;54.302;10.128;2022-08-19T02:31:54;27.87;;;16.30;;
15706;SDS011;7953;54.302;10.128;2022-08-19T02:34:21;32.70;;;19.47;;
15706;SDS011;7953;54.302;10.128;2022-08-19T02:36:50;25.80;;;19.13;;
15706;SDS011;7953;54.302;10.128;2022-08-19T02:39:17;26.20;;;18.57;;
15706;SDS011;7953;54.302;10.128;2022-08-19T02:41:43;26.40;;;18.50;;
15706;SDS011;7953;54.302;10.128;2022-08-19T02:44:10;31.87;;;18.97;;
15706;SDS011;7953;54.302;10.128;2022-08-19T02:46:39;29.80;;;18.77;;
15706;SDS011;7953;54.302;10.128;2022-08-19T02:49:06;25.13;;;18.00;;
15706;SDS011;7953;54.302;10.128;2022-08-19T02:51:35;28.27;;;18.70;;
15706;SDS011;7953;54.302;10.128;2022-08-19T02:54:04;26.13;;;18.60;;
15706;SDS011;7953;54.302;10.128;2022-08-19T02:56:33;24.97;;;16.30;;
15706;SDS011;7953;54.302;10.128;2022-08-19T02:59:00;27.40;;;18.30;;
15706;SDS011;7953;54.302;10.128;2022-08-19T03:01:28;28.40;;;18.17;;
15706;SDS011;7953;54.302;10.128;2022-08-19T03:03:59;28.87;;;19.30;;
15706;SDS011;7953;54.302;10.128;2022-08-19T03:06:28;27.40;;;17.97;;
15706;SDS011;7953;54.302;10.128;2022-08-19T03:08:56;26.37;;;18.57;;
15706;SDS011;7953;54.302;10.128;2022-08-19T03:11:24;32.97;;;19.87;;
15706;SDS011;7953;54.302;10.128;2022-08-19T03:13:53;27.93;;;18.03;;
15706;SDS011;7953;54.302;10.128;2022-08-19T03:16:21;27.03;;;18.93;;
15706;SDS011;7953;54.302;10.128;2022-08-19T03:18:49;27.23;;;18.93;;
15706;SDS011;7953;54.302;10.128;2022-08-19T03:21:20;26.27;;;17.13;;
15706;SDS011;7953;54.302;10.128;2022-08-19T03:23:48;29.23;;;19.50;;
15706;SDS011;7953;54.302;10.128;2022-08-19T03:26:16;26.37;;;18.93;;
15706;SDS011;7953;54.302;10.128;2022-08-19T03:28:43;32.07;;;20.13;;
15706;SDS011;7953;54.302;10.128;2022-08-19T03:31:16;25.53;;;18.80;;
15706;SDS011;7953;54.302;10.128;2022-08-19T03:33:44;25.37;;;17.77;;
15706;SDS011;7953;54.302;10.128;2022-08-19T03:36:12;34.87;;;20.10;;
15706;SDS011;7953;54.302;10.128;2022-08-19T03:38:43;31.60;;;18.97;;
15706;SDS011;7953;54.302;10.128;2022-08-19T03:41:12;32.20;;;20.17;;
15706;SDS011;7953;54.302;10.128;2022-08-19T03:43:40;29.50;;;18.70;;
15706;SDS011;7953;54.302;10.128;2022-08-19T03:46:09;31.57;;;18.80;;
15706;SDS011;7953;54.302;10.128;2022-08-19T03:48:38;29.10;;;18.20;;
15706;SDS011;7953;54.302;10.128;2022-08-19T03:51:06;29.60;;;18.67;;
15706;SDS011;7953;54.302;10.128;2022-08-19T03:53:42;35.00;;;19.90;;
15706;SDS011;7953;54.302;10.128;2022-08-19T03:56:09;30.40;;;18.67;;
15706;SDS011;7953;54.302;10.128;2022-08-19T03:58:37;32.77;;;18.47;;
15706;SDS011;7953;54.302;10.128;2022-08-19T04:01:06;29.53;;;19.00;;
15706;SDS011;7953;54.302;10.128;2022-08-19T04:03:34;34.37;;;19.20;;
15706;SDS011;7953;54.302;10.128;2022-08-19T04:06:08;29.90;;;18.80;;
15706;SDS011;7953;54.302;10.128;2022-08-19T04:08:37;32.80;;;20.80;;
15706;SDS011;7953;54.302;10.128;2022-08-19T04:11:08;31.87;;;19.47;;
15706;SDS011;7953;54.302;10.128;2022-08-19T04:13:36;29.37;;;18.27;;
15706;SDS011;7953;54.302;10.128;2022-08-19T04:16:03;34.00;;;18.53;;
15706;SDS011;7953;54.302;10.128;2022-08-19T04:18:31;30.67;;;18.90;;
15706;SDS011;7953;54.302;10.128;2022-08-19T04:20:58;29.57;;;17.43;;
15706;SDS011;7953;54.302;10.128;2022-08-19T04:23:26;29.17;;;18.97;;
15706;SDS011;7953;54.302;10.128;2022-08-19T04:25:53;26.27;;;18.17;;
15706;SDS011;7953;54.302;10.128;2022-08-19T04:28:22;29.67;;;20.33;;
15706;SDS011;7953;54.302;10.128;2022-08-19T04:30:50;26.63;;;18.07;;
15706;SDS011;7953;54.302;10.128;2022-08-19T04:33:20;27.47;;;19.20;;
15706;SDS011;7953;54.302;10.128;2022-08-19T04:35:53;34.70;;;19.17;;
15706;SDS011;7953;54.302;10.128;2022-08-19T04:41:44;34.90;;;20.57;;
15706;SDS011;7953;54.302;10.128;2022-08-19T04:44:34;32.90;;;20.10;;
15706;SDS011;7953;54.302;10.128;2022-08-19T04:47:10;37.30;;;19.70;;
15706;SDS011;7953;54.302;10.128;2022-08-19T04:49:39;34.70;;;20.60;;
15706;SDS011;7953;54.302;10.128;2022-08-19T04:52:06;38.10;;;20.50;;
15706;SDS011;7953;54.302;10.128;2022-08-19T04:55:06;36.17;;;20.20;;
15706;SDS011;7953;54.302;10.128;2022-08-19T04:57:48;31.03;;;20.50;;
15706;SDS011;7953;54.302;10.128;2022-08-19T05:00:41;31.23;;;19.93;;
15706;SDS011;7953;54.302;10.128;2022-08-19T05:03:09;36.37;;;20.00;;
15706;SDS011;7953;54.302;10.128;2022-08-19T05:05:49;39.30;;;18.80;;
15706;SDS011;7953;54.302;10.128;2022-08-19T05:08:20;31.80;;;19.83;;
15706;SDS011;7953;54.302;10.128;2022-08-19T05:10:47;46.53;;;21.37;;
15706;SDS011;7953;54.302;10.128;2022-08-19T05:13:17;31.67;;;18.37;;
15706;SDS011;7953;54.302;10.128;2022-08-19T05:15:48;30.60;;;18.77;;
15706;SDS011;7953;54.302;10.128;2022-08-19T05:18:20;28.50;;;19.37;;
15706;SDS011;7953;54.302;10.128;2022-08-19T05:21:05;28.37;;;19.00;;
15706;SDS011;7953;54.302;10.128;2022-08-19T05:23:50;33.70;;;19.80;;
15706;SDS011;7953;54.302;10.128;2022-08-19T05:26:17;36.43;;;19.20;;
15706;SDS011;7953;54.302;10.128;2022-08-19T05:28:44;29.37;;;18.57;;
15706;SDS011;7953;54.302;10.128;2022-08-19T05:31:12;38.20;;;20.77;;
15706;SDS011;7953;54.302;10.128;2022-08-19T05:33:39;32.53;;;19.33;;
15706;SDS011;7953;54.302;10.128;2022-08-19T05:36:06;33.07;;;18.30;;
15706;SDS011;7953;54.302;10.128;2022-08-19T05:38:33;33.97;;;19.97;;
15706;SDS011;7953;54.302;10.128;2022-08-19T05:41:05;34.67;;;19.87;;
15706;SDS011;7953;54.302;10.128;2022-08-19T05:43:33;33.33;;;19.30;;
15706;SDS011;7953;54.302;10.128;2022-08-19T05:46:00;36.23;;;19.50;;
15706;SDS011;7953;54.302;10.128;2022-08-19T05:48:29;36.53;;;19.93;;
15706;SDS011;7953;54.302;10.128;2022-08-19T05:50:56;39.17;;;20.93;;
15706;SDS011;7953;54.302;10.128;2022-08-19T05:53:23;34.47;;;19.50;;
15706;SDS011;7953;54.302;10.128;2022-08-19T05:55:50;35.77;;;20.03;;
15706;SDS011;7953;54.302;10.128;2022-08-19T05:58:17;38.13;;;21.13;;
15706;SDS011;7953;54.302;10.128;2022-08-19T06:00:44;35.13;;;19.50;;
15706;SDS011;7953;54.302;10.128;2022-08-19T06:03:11;43.73;;;21.03;;
15706;SDS011;7953;54.302;10.128;2022-08-19T06:05:39;33.80;;;19.20;;
15706;SDS011;7953;54.302;10.128;2022-08-19T06:08:07;47.53;;;22.57;;
15706;SDS011;7953;54.302;10.128;2022-08-19T06:10:34;38.97;;;20.23;;
15706;SDS011;7953;54.302;10.128;2022-08-19T06:13:01;34.17;;;18.87;;
15706;SDS011;7953;54.302;10.128;2022-08-19T06:15:29;41.27;;;21.00;;
15706;SDS011;7953;54.302;10.128;2022-08-19T06:17:56;42.50;;;20.80;;
15706;SDS011;7953;54.302;10.128;2022-08-19T06:20:23;33.43;;;18.63;;
15706;SDS011;7953;54.302;10.128;2022-08-19T06:22:51;28.00;;;17.93;;
15706;SDS011;7953;54.302;10.128;2022-08-19T06:25:18;37.20;;;19.77;;
15706;SDS011;7953;54.302;10.128;2022-08-19T06:27:45;33.37;;;18.43;;
15706;SDS011;7953;54.302;10.128;2022-08-19T06:30:12;32.40;;;19.37;;
15706;SDS011;7953;54.302;10.128;2022-08-19T06:32:40;28.60;;;18.53;;
15706;SDS011;7953;54.302;10.128;2022-08-19T06:35:07;36.67;;;17.87;;
15706;SDS011;7953;54.302;10.128;2022-08-19T06:37:34;33.20;;;19.07;;
15706;SDS011;7953;54.302;10.128;2022-08-19T06:40:04;26.63;;;18.80;;
15706;SDS011;7953;54.302;10.128;2022-08-19T06:42:33;30.67;;;19.40;;
15706;SDS011;7953;54.302;10.128;2022-08-19T06:45:00;28.20;;;19.07;;
15706;SDS011;7953;54.302;10.128;2022-08-19T06:47:29;30.33;;;17.73;;
15706;SDS011;7953;54.302;10.128;2022-08-19T06:49:57;28.13;;;18.57;;
15706;SDS011;7953;54.302;10.128;2022-08-19T06:52:26;32.97;;;19.37;;
15706;SDS011;7953;54.302;10.128;2022-08-19T06:54:53;27.97;;;19.67;;
15706;SDS011;7953;54.302;10.128;2022-08-19T06:57:22;29.30;;;20.27;;
15706;SDS011;7953;54.302;10.128;2022-08-19T06:59:50;27.03;;;19.90;;
15706;SDS011;7953;54.302;10.128;2022-08-19T07:02:17;33.53;;;20.13;;
15706;SDS011;7953;54.302;10.128;2022-08-19T07:04:45;27.53;;;20.07;;
15706;SDS011;7953;54.302;10.128;2022-08-19T07:07:13;36.77;;;21.73;;
15706;SDS011;7953;54.302;10.128;2022-08-19T07:09:41;32.03;;;20.23;;
15706;SDS011;7953;54.302;10.128;2022-08-19T07:12:10;35.70;;;21.67;;
15706;SDS011;7953;54.302;10.128;2022-08-19T07:14:40;27.60;;;19.47;;
15706;SDS011;7953;54.302;10.128;2022-08-19T07:17:08;29.13;;;19.73;;
15706;SDS011;7953;54.302;10.128;2022-08-19T07:19:37;28.33;;;18.47;;
15706;SDS011;7953;54.302;10.128;2022-08-19T07:22:06;29.67;;;19.70;;
15706;SDS011;7953;54.302;10.128;2022-08-19T07:24:34;28.83;;;20.50;;
15706;SDS011;7953;54.302;10.128;2022-08-19T07:27:02;26.13;;;19.37;;
15706;SDS011;7953;54.302;10.128;2022-08-19T07:29:31;29.60;;;20.87;;
15706;SDS011;7953;54.302;10.128;2022-08-19T07:32:02;31.77;;;19.03;;
15706;SDS011;7953;54.302;10.128;2022-08-19T07:34:31;27.50;;;20.80;;
15706;SDS011;7953;54.302;10.128;2022-08-19T07:37:02;28.77;;;20.13;;
15706;SDS011;7953;54.302;10.128;2022-08-19T07:39:31;26.60;;;19.43;;
15706;SDS011;7953;54.302;10.128;2022-08-19T07:42:01;30.80;;;21.37;;
15706;SDS011;7953;54.302;10.128;2022-08-19T07:44:32;25.40;;;19.27;;
15706;SDS011;7953;54.302;10.128;2022-08-19T07:47:00;26.10;;;19.53;;
15706;SDS011;7953;54.302;10.128;2022-08-19T07:49:29;27.27;;;19.83;;
15706;SDS011;7953;54.302;10.128;2022-08-19T07:51:57;42.40;;;22.83;;
15706;SDS011;7953;54.302;10.128;2022-08-19T07:54:27;30.67;;;19.53;;
15706;SDS011;7953;54.302;10.128;2022-08-19T07:56:55;25.97;;;19.93;;
15706;SDS011;7953;54.302;10.128;2022-08-19T07:59:23;35.53;;;22.50;;
15706;SDS011;7953;54.302;10.128;2022-08-19T08:01:50;32.63;;;21.50;;
15706;SDS011;7953;54.302;10.128;2022-08-19T08:04:20;31.30;;;21.37;;
15706;SDS011;7953;54.302;10.128;2022-08-19T08:07:05;28.57;;;21.07;;
15706;SDS011;7953;54.302;10.128;2022-08-19T08:09:50;33.80;;;22.67;;
15706;SDS011;7953;54.302;10.128;2022-08-19T08:12:20;30.33;;;22.33;;
15706;SDS011;7953;54.302;10.128;2022-08-19T08:14:54;27.07;;;20.20;;
15706;SDS011;7953;54.302;10.128;2022-08-19T08:17:24;29.80;;;20.30;;
15706;SDS011;7953;54.302;10.128;2022-08-19T08:19:54;33.90;;;22.93;;
15706;SDS011;7953;54.302;10.128;2022-08-19T08:22:22;29.70;;;22.07;;
15706;SDS011;7953;54.302;10.128;2022-08-19T08:25:08;26.73;;;20.37;;
15706;SDS011;7953;54.302;10.128;2022-08-19T08:27:37;29.97;;;22.77;;
15706;SDS011;7953;54.302;10.128;2022-08-19T08:30:06;29.53;;;21.60;;
15706;SDS011;7953;54.302;10.128;2022-08-19T08:32:35;27.03;;;20.33;;
15706;SDS011;7953;54.302;10.128;2022-08-19T08:35:04;26.13;;;21.73;;
15706;SDS011;7953;54.302;10.128;2022-08-19T08:37:32;24.53;;;20.37;;
15706;SDS011;7953;54.302;10.128;2022-08-19T08:40:02;24.30;;;20.43;;
15706;SDS011;7953;54.302;10.128;2022-08-19T08:42:32;24.73;;;18.80;;
15706;SDS011;7953;54.302;10.128;2022-08-19T08:45:05;25.67;;;19.63;;
15706;SDS011;7953;54.302;10.128;2022-08-19T08:47:41;21.17;;;18.70;;
15706;SDS011;7953;54.302;10.128;2022-08-19T08:50:15;22.60;;;19.90;;
15706;SDS011;7953;54.302;10.128;2022-08-19T08:52:46;23.93;;;19.37;;
15706;SDS011;7953;54.302;10.128;2022-08-19T08:55:17;22.63;;;19.53;;
15706;SDS011;7953;54.302;10.128;2022-08-19T08:57:49;25.80;;;19.20;;
15706;SDS011;7953;54.302;10.128;2022-08-19T09:00:21;23.20;;;20.67;;
15706;SDS011;7953;54.302;10.128;2022-08-19T09:02:51;21.13;;;18.10;;
15706;SDS011;7953;54.302;10.128;2022-08-19T09:05:20;23.63;;;19.47;;
15706;SDS011;7953;54.302;10.128;2022-08-19T09:07:51;23.03;;;18.37;;
15706;SDS011;7953;54.302;10.128;2022-08-19T09:10:27;22.23;;;18.90;;
15706;SDS011;7953;54.302;10.128;2022-08-19T09:13:00;20.50;;;18.30;;
15706;SDS011;7953;54.302;10.128;2022-08-19T09:15:36;24.00;;;19.87;;
15706;SDS011;7953;54.302;10.128;2022-08-19T09:18:09;24.03;;;20.17;;
15706;SDS011;7953;54.302;10.128;2022-08-19T09:20:37;23.03;;;19.77;;
15706;SDS011;7953;54.302;10.128;2022-08-19T09:23:04;22.93;;;19.40;;
15706;SDS011;7953;54.302;10.128;2022-08-19T09:25:31;25.50;;;20.87;;
15706;SDS011;7953;54.302;10.128;2022-08-19T09:27:59;25.80;;;22.47;;
15706;SDS011;7953;54.302;10.128;2022-08-19T09:30:29;25.70;;;22.37;;
15706;SDS011;7953;54.302;10.128;2022-08-19T09:32:58;28.70;;;21.77;;
15706;SDS011;7953;54.302;10.128;2022-08-19T09:35:26;28.17;;;22.97;;
15706;SDS011;7953;54.302;10.128;2022-08-19T09:37:57;28.23;;;23.07;;
15706;SDS011;7953;54.302;10.128;2022-08-19T09:40:25;27.23;;;22.13;;
15706;SDS011;7953;54.302;10.128;2022-08-19T09:42:53;27.73;;;22.97;;
15706;SDS011;7953;54.302;10.128;2022-08-19T09:45:22;32.33;;;23.60;;
15706;SDS011;7953;54.302;10.128;2022-08-19T09:47:49;28.67;;;22.53;;
15706;SDS011;7953;54.302;10.128;2022-08-19T09:50:17;29.70;;;23.57;;
15706;SDS011;7953;54.302;10.128;2022-08-19T09:52:45;25.73;;;21.83;;
15706;SDS011;7953;54.302;10.128;2022-08-19T09:55:13;28.17;;;22.70;;
15706;SDS011;7953;54.302;10.128;2022-08-19T09:57:41;27.20;;;22.23;;
15706;SDS011;7953;54.302;10.128;2022-08-19T10:00:08;31.10;;;23.73;;
15706;SDS011;7953;54.302;10.128;2022-08-19T10:02:36;27.93;;;21.80;;
15706;SDS011;7953;54.302;10.128;2022-08-19T10:05:03;27.20;;;21.00;;
15706;SDS011;7953;54.302;10.128;2022-08-19T10:07:59;28.33;;;21.93;;
15706;SDS011;7953;54.302;10.128;2022-08-19T10:10:28;29.20;;;22.40;;
15706;SDS011;7953;54.302;10.128;2022-08-19T10:12:55;31.07;;;22.23;;
15706;SDS011;7953;54.302;10.128;2022-08-19T10:15:22;28.60;;;23.43;;
15706;SDS011;7953;54.302;10.128;2022-08-19T10:17:48;28.97;;;22.93;;
15706;SDS011;7953;54.302;10.128;2022-08-19T10:20:15;28.93;;;22.53;;
15706;SDS011;7953;54.302;10.128;2022-08-19T10:22:43;32.43;;;22.60;;
15706;SDS011;7953;54.302;10.128;2022-08-19T10:25:10;25.30;;;21.30;;
15706;SDS011;7953;54.302;10.128;2022-08-19T10:27:43;31.47;;;22.37;;
15706;SDS011;7953;54.302;10.128;2022-08-19T10:30:10;21.77;;;18.37;;
15706;SDS011;7953;54.302;10.128;2022-08-19T10:32:38;25.93;;;21.73;;
15706;SDS011;7953;54.302;10.128;2022-08-19T10:35:05;25.80;;;20.37;;
15706;SDS011;7953;54.302;10.128;2022-08-19T10:37:33;32.47;;;21.47;;
15706;SDS011;7953;54.302;10.128;2022-08-19T10:40:00;28.67;;;20.70;;
15706;SDS011;7953;54.302;10.128;2022-08-19T10:42:28;27.40;;;20.63;;
15706;SDS011;7953;54.302;10.128;2022-08-19T10:44:57;27.60;;;21.90;;
15706;SDS011;7953;54.302;10.128;2022-08-19T10:47:24;28.97;;;19.67;;
15706;SDS011;7953;54.302;10.128;2022-08-19T10:49:52;23.07;;;18.43;;
15706;SDS011;7953;54.302;10.128;2022-08-19T10:52:38;22.93;;;18.93;;
15706;SDS011;7953;54.302;10.128;2022-08-19T10:55:06;23.00;;;18.53;;
15706;SDS011;7953;54.302;10.128;2022-08-19T10:57:50;21.33;;;16.20;;
15706;SDS011;7953;54.302;10.128;2022-08-19T11:00:20;23.67;;;19.83;;
15706;SDS011;7953;54.302;10.128;2022-08-19T11:02:48;29.97;;;20.23;;
15706;SDS011;7953;54.302;10.128;2022-08-19T11:05:15;22.83;;;18.47;;
15706;SDS011;7953;54.302;10.128;2022-08-19T11:07:43;24.30;;;19.00;;
15706;SDS011;7953;54.302;10.128;2022-08-19T11:10:11;23.30;;;19.37;;
15706;SDS011;7953;54.302;10.128;2022-08-19T11:12:40;25.47;;;19.00;;
15706;SDS011;7953;54.302;10.128;2022-08-19T11:15:08;28.43;;;20.87;;
15706;SDS011;7953;54.302;10.128;2022-08-19T11:17:38;25.63;;;20.63;;
15706;SDS011;7953;54.302;10.128;2022-08-19T11:20:08;28.70;;;22.27;;
15706;SDS011;7953;54.302;10.128;2022-08-19T11:22:37;23.13;;;18.77;;
15706;SDS011;7953;54.302;10.128;2022-08-19T11:25:05;26.00;;;21.03;;
15706;SDS011;7953;54.302;10.128;2022-08-19T11:27:32;24.57;;;17.93;;
15706;SDS011;7953;54.302;10.128;2022-08-19T11:29:59;25.23;;;19.17;;
15706;SDS011;7953;54.302;10.128;2022-08-19T11:32:28;28.33;;;20.23;;
15706;SDS011;7953;54.302;10.128;2022-08-19T11:34:56;27.10;;;21.47;;
15706;SDS011;7953;54.302;10.128;2022-08-19T11:37:23;26.03;;;18.17;;
15706;SDS011;7953;54.302;10.128;2022-08-19T11:39:51;26.30;;;19.37;;
15706;SDS011;7953;54.302;10.128;2022-08-19T11:42:18;28.27;;;21.33;;
15706;SDS011;7953;54.302;10.128;2022-08-19T11:45:03;28.30;;;21.23;;
15706;SDS011;7953;54.302;10.128;2022-08-19T11:47:30;28.83;;;21.30;;
15706;SDS011;7953;54.302;10.128;2022-08-19T11:49:59;26.50;;;19.77;;
15706;SDS011;7953;54.302;10.128;2022-08-19T11:52:26;26.97;;;20.60;;
15706;SDS011;7953;54.302;10.128;2022-08-19T11:54:54;21.63;;;17.43;;
15706;SDS011;7953;54.302;10.128;2022-08-19T11:57:21;26.70;;;19.40;;
15706;SDS011;7953;54.302;10.128;2022-08-19T11:59:48;25.67;;;19.60;;
15706;SDS011;7953;54.302;10.128;2022-08-19T12:02:16;29.97;;;21.47;;
15706;SDS011;7953;54.302;10.128;2022-08-19T12:04:44;26.20;;;20.97;;
15706;SDS011;7953;54.302;10.128;2022-08-19T12:07:13;28.87;;;23.57;;
15706;SDS011;7953;54.302;10.128;2022-08-19T12:09:40;30.23;;;21.73;;
15706;SDS011;7953;54.302;10.128;2022-08-19T12:12:08;29.00;;;21.53;;
15706;SDS011;7953;54.302;10.128;2022-08-19T12:14:35;28.80;;;21.43;;
15706;SDS011;7953;54.302;10.128;2022-08-19T12:17:02;29.90;;;21.73;;
15706;SDS011;7953;54.302;10.128;2022-08-19T12:19:32;28.27;;;21.60;;
15706;SDS011;7953;54.302;10.128;2022-08-19T12:22:00;29.93;;;21.63;;
15706;SDS011;7953;54.302;10.128;2022-08-19T12:24:31;26.70;;;20.03;;
15706;SDS011;7953;54.302;10.128;2022-08-19T12:26:58;36.40;;;23.63;;
15706;SDS011;7953;54.302;10.128;2022-08-19T12:29:26;29.80;;;22.10;;
15706;SDS011;7953;54.302;10.128;2022-08-19T12:31:55;33.87;;;23.67;;
15706;SDS011;7953;54.302;10.128;2022-08-19T12:34:25;32.80;;;23.67;;
15706;SDS011;7953;54.302;10.128;2022-08-19T12:36:55;33.33;;;24.47;;
15706;SDS011;7953;54.302;10.128;2022-08-19T12:39:22;30.87;;;22.60;;
15706;SDS011;7953;54.302;10.128;2022-08-19T12:41:50;32.27;;;22.60;;
15706;SDS011;7953;54.302;10.128;2022-08-19T12:44:17;30.53;;;22.60;;
15706;SDS011;7953;54.302;10.128;2022-08-19T12:46:44;36.47;;;24.07;;
15706;SDS011;7953;54.302;10.128;2022-08-19T12:49:13;27.70;;;22.47;;
15706;SDS011;7953;54.302;10.128;2022-08-19T12:51:40;34.07;;;25.30;;
15706;SDS011;7953;54.302;10.128;2022-08-19T12:54:07;39.80;;;24.73;;
15706;SDS011;7953;54.302;10.128;2022-08-19T12:56:34;30.30;;;22.00;;
15706;SDS011;7953;54.302;10.128;2022-08-19T12:59:04;31.17;;;22.87;;
15706;SDS011;7953;54.302;10.128;2022-08-19T13:01:32;31.13;;;23.13;;
15706;SDS011;7953;54.302;10.128;2022-08-19T13:03:59;31.83;;;24.63;;
15706;SDS011;7953;54.302;10.128;2022-08-19T13:06:27;33.63;;;24.77;;
15706;SDS011;7953;54.302;10.128;2022-08-19T13:08:53;38.57;;;25.63;;
15706;SDS011;7953;54.302;10.128;2022-08-19T13:14:45;26.53;;;20.70;;
15706;SDS011;7953;54.302;10.128;2022-08-19T13:17:15;32.57;;;23.23;;
15706;SDS011;7953;54.302;10.128;2022-08-19T13:19:41;32.43;;;25.23;;
15706;SDS011;7953;54.302;10.128;2022-08-19T13:22:08;34.17;;;23.97;;
15706;SDS011;7953;54.302;10.128;2022-08-19T13:24:37;36.13;;;25.03;;
15706;SDS011;7953;54.302;10.128;2022-08-19T13:27:04;33.27;;;23.43;;
15706;SDS011;7953;54.302;10.128;2022-08-19T13:29:31;31.70;;;21.13;;
15706;SDS011;7953;54.302;10.128;2022-08-19T13:32:17;27.83;;;20.07;;
15706;SDS011;7953;54.302;10.128;2022-08-19T13:35:02;33.47;;;23.70;;
15706;SDS011;7953;54.302;10.128;2022-08-19T13:37:30;29.03;;;20.83;;
15706;SDS011;7953;54.302;10.128;2022-08-19T13:40:10;28.73;;;22.07;;
15706;SDS011;7953;54.302;10.128;2022-08-19T13:42:41;33.73;;;23.87;;
15706;SDS011;7953;54.302;10.128;2022-08-19T13:45:09;24.77;;;19.07;;
15706;SDS011;7953;54.302;10.128;2022-08-19T13:47:38;24.60;;;19.40;;
15706;SDS011;7953;54.302;10.128;2022-08-19T13:50:10;28.03;;;21.07;;
15706;SDS011;7953;54.302;10.128;2022-08-19T13:52:37;26.17;;;20.40;;
15706;SDS011;7953;54.302;10.128;2022-08-19T13:55:05;22.80;;;18.07;;
15706;SDS011;7953;54.302;10.128;2022-08-19T13:57:33;24.30;;;19.90;;
15706;SDS011;7953;54.302;10.128;2022-08-19T14:00:05;26.93;;;20.83;;
15706;SDS011;7953;54.302;10.128;2022-08-19T14:02:34;27.87;;;20.33;;
15706;SDS011;7953;54.302;10.128;2022-08-19T14:05:04;25.87;;;20.40;;
15706;SDS011;7953;54.302;10.128;2022-08-19T14:07:35;29.27;;;22.33;;
15706;SDS011;7953;54.302;10.128;2022-08-19T14:10:03;24.53;;;20.83;;
15706;SDS011;7953;54.302;10.128;2022-08-19T14:12:31;24.47;;;20.30;;
15706;SDS011;7953;54.302;10.128;2022-08-19T14:14:58;24.73;;;19.53;;
15706;SDS011;7953;54.302;10.128;2022-08-19T14:17:25;24.10;;;19.73;;
15706;SDS011;7953;54.302;10.128;2022-08-19T14:19:55;23.93;;;20.10;;
15706;SDS011;7953;54.302;10.128;2022-08-19T14:22:24;22.40;;;18.00;;
15706;SDS011;7953;54.302;10.128;2022-08-19T14:24:50;24.70;;;20.47;;
15706;SDS011;7953;54.302;10.128;2022-08-19T14:27:17;27.93;;;20.43;;
15706;SDS011;7953;54.302;10.128;2022-08-19T14:29:44;24.63;;;20.17;;
15706;SDS011;7953;54.302;10.128;2022-08-19T14:32:11;26.37;;;18.83;;
15706;SDS011;7953;54.302;10.128;2022-08-19T14:34:38;27.50;;;22.03;;
15706;SDS011;7953;54.302;10.128;2022-08-19T14:37:05;25.63;;;18.93;;
15706;SDS011;7953;54.302;10.128;2022-08-19T14:39:34;24.43;;;18.97;;